sensor_id;sensor_type;location;lat;lon;timestamp;P1;durP1;ratioP1;P2;durP2;ratioP2
6955;SDS011;50345;51.136;16.886;2023-02-28T00:00:44;71.23;;;39.30;;
6955;SDS011;50345;51.136;16.886;2023-02-28T00:03:09;94.10;;;47.97;;
6955;SDS011;50345;51.136;16.886;2023-02-28T00:05:35;71.63;;;40.93;;
6955;SDS011;50345;51.136;16.886;2023-02-28T00:08:00;59.03;;;34.10;;
6955;SDS011;50345;51.136;16.886;2023-02-28T00:10:27;53.30;;;31.77;;
6955;SDS011;50345;51.136;16.886;2023-02-28T00:12:58;42.53;;;28.58;;
6955;SDS011;50345;51.136;16.886;2023-02-28T00:15:29;53.88;;;32.70;;
6955;SDS011;50345;51.136;16.886;2023-02-28T00:17:54;54.87;;;33.80;;
6955;SDS011;50345;51.136;16.886;2023-02-28T00:20:20;64.13;;;35.70;;
6955;SDS011;50345;51.136;16.886;2023-02-28T00:22:47;61.43;;;36.47;;
6955;SDS011;50345;51.136;16.886;2023-02-28T00:25:16;64.40;;;37.83;;
6955;SDS011;50345;51.136;16.886;2023-02-28T00:27:45;69.07;;;39.03;;
6955;SDS011;50345;51.136;16.886;2023-02-28T00:30:13;68.10;;;39.58;;
6955;SDS011;50345;51.136;16.886;2023-02-28T00:32:40;67.15;;;38.72;;
6955;SDS011;50345;51.136;16.886;2023-02-28T00:35:06;58.07;;;33.40;;
6955;SDS011;50345;51.136;16.886;2023-02-28T00:37:32;67.25;;;35.28;;
6955;SDS011;50345;51.136;16.886;2023-02-28T00:39:58;61.00;;;35.33;;
6955;SDS011;50345;51.136;16.886;2023-02-28T00:42:24;58.10;;;33.70;;
6955;SDS011;50345;51.136;16.886;2023-02-28T00:44:50;63.90;;;34.60;;
6955;SDS011;50345;51.136;16.886;2023-02-28T00:47:15;49.37;;;32.47;;
6955;SDS011;50345;51.136;16.886;2023-02-28T00:49:41;56.33;;;32.60;;
6955;SDS011;50345;51.136;16.886;2023-02-28T00:52:07;47.97;;;31.03;;
6955;SDS011;50345;51.136;16.886;2023-02-28T00:54:32;58.67;;;32.40;;
6955;SDS011;50345;51.136;16.886;2023-02-28T00:56:58;47.50;;;30.00;;
6955;SDS011;50345;51.136;16.886;2023-02-28T00:59:24;52.75;;;30.77;;
6955;SDS011;50345;51.136;16.886;2023-02-28T01:01:49;53.37;;;33.80;;
6955;SDS011;50345;51.136;16.886;2023-02-28T01:04:15;45.60;;;29.40;;
6955;SDS011;50345;51.136;16.886;2023-02-28T01:06:41;51.10;;;31.33;;
6955;SDS011;50345;51.136;16.886;2023-02-28T01:09:07;53.23;;;31.83;;
6955;SDS011;50345;51.136;16.886;2023-02-28T01:11:33;60.72;;;33.83;;
6955;SDS011;50345;51.136;16.886;2023-02-28T01:13:59;51.25;;;30.77;;
6955;SDS011;50345;51.136;16.886;2023-02-28T01:16:25;56.17;;;32.90;;
6955;SDS011;50345;51.136;16.886;2023-02-28T01:18:51;55.67;;;32.53;;
6955;SDS011;50345;51.136;16.886;2023-02-28T01:21:17;51.43;;;31.13;;
6955;SDS011;50345;51.136;16.886;2023-02-28T01:23:44;47.80;;;32.22;;
6955;SDS011;50345;51.136;16.886;2023-02-28T01:26:11;49.20;;;32.03;;
6955;SDS011;50345;51.136;16.886;2023-02-28T01:28:47;46.20;;;31.55;;
6955;SDS011;50345;51.136;16.886;2023-02-28T01:31:14;41.17;;;27.58;;
6955;SDS011;50345;51.136;16.886;2023-02-28T01:33:40;47.07;;;28.07;;
6955;SDS011;50345;51.136;16.886;2023-02-28T01:36:07;42.70;;;28.40;;
6955;SDS011;50345;51.136;16.886;2023-02-28T01:38:35;37.70;;;26.27;;
6955;SDS011;50345;51.136;16.886;2023-02-28T01:41:01;49.35;;;29.40;;
6955;SDS011;50345;51.136;16.886;2023-02-28T01:43:29;46.47;;;29.25;;
6955;SDS011;50345;51.136;16.886;2023-02-28T01:45:57;44.75;;;29.42;;
6955;SDS011;50345;51.136;16.886;2023-02-28T01:48:27;44.70;;;27.60;;
6955;SDS011;50345;51.136;16.886;2023-02-28T01:50:58;41.78;;;26.52;;
6955;SDS011;50345;51.136;16.886;2023-02-28T01:53:29;38.25;;;24.98;;
6955;SDS011;50345;51.136;16.886;2023-02-28T01:55:59;44.42;;;23.08;;
6955;SDS011;50345;51.136;16.886;2023-02-28T01:58:28;36.55;;;26.10;;
6955;SDS011;50345;51.136;16.886;2023-02-28T02:00:54;43.77;;;25.87;;
6955;SDS011;50345;51.136;16.886;2023-02-28T02:03:19;38.10;;;25.07;;
6955;SDS011;50345;51.136;16.886;2023-02-28T02:05:45;36.08;;;24.90;;
6955;SDS011;50345;51.136;16.886;2023-02-28T02:08:17;43.80;;;26.05;;
6955;SDS011;50345;51.136;16.886;2023-02-28T02:10:50;47.30;;;26.42;;
6955;SDS011;50345;51.136;16.886;2023-02-28T02:13:34;42.65;;;28.67;;
6955;SDS011;50345;51.136;16.886;2023-02-28T02:25:33;37.40;;;25.90;;
6955;SDS011;50345;51.136;16.886;2023-02-28T02:37:01;40.95;;;26.38;;
6955;SDS011;50345;51.136;16.886;2023-02-28T02:45:19;36.80;;;28.35;;
6955;SDS011;50345;51.136;16.886;2023-02-28T02:47:50;40.22;;;27.50;;
6955;SDS011;50345;51.136;16.886;2023-02-28T02:50:22;37.35;;;26.00;;
6955;SDS011;50345;51.136;16.886;2023-02-28T02:52:52;46.92;;;30.88;;
6955;SDS011;50345;51.136;16.886;2023-02-28T02:55:21;54.40;;;36.13;;
6955;SDS011;50345;51.136;16.886;2023-02-28T02:57:52;52.47;;;32.63;;
6955;SDS011;50345;51.136;16.886;2023-02-28T03:00:23;40.75;;;29.92;;
6955;SDS011;50345;51.136;16.886;2023-02-28T03:02:54;46.50;;;30.88;;
6955;SDS011;50345;51.136;16.886;2023-02-28T03:05:25;49.92;;;31.80;;
6955;SDS011;50345;51.136;16.886;2023-02-28T03:07:54;40.65;;;28.17;;
6955;SDS011;50345;51.136;16.886;2023-02-28T03:10:27;37.20;;;27.27;;
6955;SDS011;50345;51.136;16.886;2023-02-28T03:13:00;36.60;;;26.35;;
6955;SDS011;50345;51.136;16.886;2023-02-28T03:15:33;37.08;;;25.85;;
6955;SDS011;50345;51.136;16.886;2023-02-28T03:18:16;36.40;;;27.13;;
6955;SDS011;50345;51.136;16.886;2023-02-28T03:21:45;38.67;;;28.15;;
6955;SDS011;50345;51.136;16.886;2023-02-28T03:24:10;37.78;;;26.30;;
6955;SDS011;50345;51.136;16.886;2023-02-28T03:27:03;44.03;;;28.35;;
6955;SDS011;50345;51.136;16.886;2023-02-28T03:29:35;40.38;;;27.38;;
6955;SDS011;50345;51.136;16.886;2023-02-28T03:32:12;43.97;;;27.90;;
6955;SDS011;50345;51.136;16.886;2023-02-28T03:34:42;48.22;;;28.42;;
6955;SDS011;50345;51.136;16.886;2023-02-28T03:37:19;42.88;;;28.10;;
6955;SDS011;50345;51.136;16.886;2023-02-28T03:39:47;35.05;;;26.15;;
6955;SDS011;50345;51.136;16.886;2023-02-28T03:42:20;40.55;;;27.77;;
6955;SDS011;50345;51.136;16.886;2023-02-28T03:44:53;44.08;;;29.20;;
6955;SDS011;50345;51.136;16.886;2023-02-28T03:47:24;47.88;;;28.60;;
6955;SDS011;50345;51.136;16.886;2023-02-28T03:49:55;44.65;;;27.73;;
6955;SDS011;50345;51.136;16.886;2023-02-28T03:52:28;43.38;;;27.48;;
6955;SDS011;50345;51.136;16.886;2023-02-28T03:54:59;42.53;;;29.60;;
6955;SDS011;50345;51.136;16.886;2023-02-28T03:57:40;37.78;;;26.75;;
6955;SDS011;50345;51.136;16.886;2023-02-28T04:00:19;40.35;;;26.02;;
6955;SDS011;50345;51.136;16.886;2023-02-28T04:02:50;55.83;;;33.22;;
6955;SDS011;50345;51.136;16.886;2023-02-28T04:05:17;54.95;;;31.67;;
6955;SDS011;50345;51.136;16.886;2023-02-28T04:07:44;53.38;;;33.05;;
6955;SDS011;50345;51.136;16.886;2023-02-28T04:10:10;48.63;;;31.80;;
6955;SDS011;50345;51.136;16.886;2023-02-28T04:12:37;46.83;;;30.00;;
6955;SDS011;50345;51.136;16.886;2023-02-28T04:15:02;48.80;;;30.37;;
6955;SDS011;50345;51.136;16.886;2023-02-28T04:17:28;52.80;;;32.00;;
6955;SDS011;50345;51.136;16.886;2023-02-28T04:19:54;52.43;;;29.00;;
6955;SDS011;50345;51.136;16.886;2023-02-28T04:22:21;50.25;;;28.98;;
6955;SDS011;50345;51.136;16.886;2023-02-28T04:24:47;47.50;;;27.57;;
6955;SDS011;50345;51.136;16.886;2023-02-28T04:27:12;47.70;;;29.90;;
6955;SDS011;50345;51.136;16.886;2023-02-28T04:29:40;45.60;;;31.23;;
6955;SDS011;50345;51.136;16.886;2023-02-28T04:32:09;42.38;;;29.35;;
6955;SDS011;50345;51.136;16.886;2023-02-28T04:34:35;39.15;;;28.27;;
6955;SDS011;50345;51.136;16.886;2023-02-28T04:37:01;42.43;;;30.63;;
6955;SDS011;50345;51.136;16.886;2023-02-28T04:39:28;49.90;;;31.08;;
6955;SDS011;50345;51.136;16.886;2023-02-28T04:41:54;51.42;;;31.45;;
6955;SDS011;50345;51.136;16.886;2023-02-28T04:44:21;45.15;;;30.98;;
6955;SDS011;50345;51.136;16.886;2023-02-28T04:46:47;44.85;;;32.83;;
6955;SDS011;50345;51.136;16.886;2023-02-28T04:49:13;46.13;;;32.47;;
6955;SDS011;50345;51.136;16.886;2023-02-28T04:51:39;48.20;;;31.37;;
6955;SDS011;50345;51.136;16.886;2023-02-28T04:54:04;47.93;;;30.97;;
6955;SDS011;50345;51.136;16.886;2023-02-28T04:56:30;47.60;;;30.27;;
6955;SDS011;50345;51.136;16.886;2023-02-28T04:58:56;42.03;;;30.33;;
6955;SDS011;50345;51.136;16.886;2023-02-28T05:03:58;42.63;;;29.00;;
6955;SDS011;50345;51.136;16.886;2023-02-28T05:06:26;51.65;;;31.83;;
6955;SDS011;50345;51.136;16.886;2023-02-28T05:08:54;48.35;;;31.38;;
6955;SDS011;50345;51.136;16.886;2023-02-28T05:11:25;51.28;;;31.23;;
6955;SDS011;50345;51.136;16.886;2023-02-28T05:13:54;47.30;;;30.08;;
6955;SDS011;50345;51.136;16.886;2023-02-28T05:16:20;48.72;;;30.58;;
6955;SDS011;50345;51.136;16.886;2023-02-28T05:18:46;41.07;;;29.47;;
6955;SDS011;50345;51.136;16.886;2023-02-28T05:21:34;45.15;;;29.30;;
6955;SDS011;50345;51.136;16.886;2023-02-28T05:24:00;43.25;;;28.38;;
6955;SDS011;50345;51.136;16.886;2023-02-28T05:26:30;47.33;;;32.30;;
6955;SDS011;50345;51.136;16.886;2023-02-28T05:28:56;45.65;;;29.95;;
6955;SDS011;50345;51.136;16.886;2023-02-28T05:31:22;45.20;;;29.15;;
6955;SDS011;50345;51.136;16.886;2023-02-28T05:33:48;44.93;;;30.70;;
6955;SDS011;50345;51.136;16.886;2023-02-28T05:36:13;39.83;;;28.60;;
6955;SDS011;50345;51.136;16.886;2023-02-28T05:38:39;55.50;;;29.67;;
6955;SDS011;50345;51.136;16.886;2023-02-28T05:41:05;39.70;;;28.07;;
6955;SDS011;50345;51.136;16.886;2023-02-28T05:43:32;45.78;;;29.17;;
6955;SDS011;50345;51.136;16.886;2023-02-28T05:45:58;52.63;;;34.17;;
6955;SDS011;50345;51.136;16.886;2023-02-28T05:48:24;40.47;;;28.33;;
6955;SDS011;50345;51.136;16.886;2023-02-28T05:50:50;49.30;;;29.92;;
6955;SDS011;50345;51.136;16.886;2023-02-28T05:53:16;50.70;;;30.17;;
6955;SDS011;50345;51.136;16.886;2023-02-28T05:55:42;75.77;;;47.43;;
6955;SDS011;50345;51.136;16.886;2023-02-28T05:58:07;61.70;;;40.33;;
6955;SDS011;50345;51.136;16.886;2023-02-28T06:00:33;59.50;;;35.00;;
6955;SDS011;50345;51.136;16.886;2023-02-28T06:02:58;60.97;;;35.93;;
6955;SDS011;50345;51.136;16.886;2023-02-28T06:05:26;47.17;;;30.88;;
6955;SDS011;50345;51.136;16.886;2023-02-28T06:07:52;56.30;;;34.95;;
6955;SDS011;50345;51.136;16.886;2023-02-28T06:10:18;56.67;;;32.77;;
6955;SDS011;50345;51.136;16.886;2023-02-28T06:12:44;45.95;;;31.00;;
6955;SDS011;50345;51.136;16.886;2023-02-28T06:15:11;50.03;;;32.50;;
6955;SDS011;50345;51.136;16.886;2023-02-28T06:17:39;48.05;;;33.55;;
6955;SDS011;50345;51.136;16.886;2023-02-28T06:20:08;51.67;;;31.88;;
6955;SDS011;50345;51.136;16.886;2023-02-28T06:22:37;45.85;;;30.70;;
6955;SDS011;50345;51.136;16.886;2023-02-28T06:25:04;44.28;;;29.17;;
6955;SDS011;50345;51.136;16.886;2023-02-28T06:27:31;44.50;;;29.77;;
6955;SDS011;50345;51.136;16.886;2023-02-28T06:29:58;40.70;;;28.98;;
6955;SDS011;50345;51.136;16.886;2023-02-28T06:32:23;49.13;;;30.87;;
6955;SDS011;50345;51.136;16.886;2023-02-28T06:34:49;43.23;;;30.03;;
6955;SDS011;50345;51.136;16.886;2023-02-28T06:37:15;44.33;;;27.83;;
6955;SDS011;50345;51.136;16.886;2023-02-28T06:39:41;42.28;;;29.20;;
6955;SDS011;50345;51.136;16.886;2023-02-28T06:42:07;40.53;;;28.30;;
6955;SDS011;50345;51.136;16.886;2023-02-28T06:44:32;41.13;;;28.23;;
6955;SDS011;50345;51.136;16.886;2023-02-28T06:47:00;38.47;;;26.83;;
6955;SDS011;50345;51.136;16.886;2023-02-28T06:49:30;38.30;;;25.98;;
6955;SDS011;50345;51.136;16.886;2023-02-28T06:51:56;36.03;;;24.80;;
6955;SDS011;50345;51.136;16.886;2023-02-28T06:54:22;36.17;;;24.60;;
6955;SDS011;50345;51.136;16.886;2023-02-28T06:56:47;31.63;;;24.70;;
6955;SDS011;50345;51.136;16.886;2023-02-28T06:59:13;36.80;;;24.92;;
6955;SDS011;50345;51.136;16.886;2023-02-28T07:01:39;58.90;;;24.80;;
6955;SDS011;50345;51.136;16.886;2023-02-28T07:04:05;32.00;;;24.58;;
6955;SDS011;50345;51.136;16.886;2023-02-28T07:06:31;36.97;;;24.40;;
6955;SDS011;50345;51.136;16.886;2023-02-28T07:08:58;31.92;;;21.55;;
6955;SDS011;50345;51.136;16.886;2023-02-28T07:11:26;31.77;;;23.00;;
6955;SDS011;50345;51.136;16.886;2023-02-28T07:13:53;37.53;;;22.83;;
6955;SDS011;50345;51.136;16.886;2023-02-28T07:16:20;28.33;;;20.45;;
6955;SDS011;50345;51.136;16.886;2023-02-28T07:18:46;25.35;;;18.30;;
6955;SDS011;50345;51.136;16.886;2023-02-28T07:21:12;27.10;;;19.93;;
6955;SDS011;50345;51.136;16.886;2023-02-28T07:23:38;27.60;;;20.92;;
6955;SDS011;50345;51.136;16.886;2023-02-28T07:26:04;32.90;;;19.67;;
6955;SDS011;50345;51.136;16.886;2023-02-28T07:28:31;27.23;;;19.35;;
6955;SDS011;50345;51.136;16.886;2023-02-28T07:30:57;29.80;;;19.90;;
6955;SDS011;50345;51.136;16.886;2023-02-28T07:33:28;26.30;;;19.10;;
6955;SDS011;50345;51.136;16.886;2023-02-28T07:35:59;21.60;;;16.67;;
6955;SDS011;50345;51.136;16.886;2023-02-28T07:38:29;26.30;;;17.95;;
6955;SDS011;50345;51.136;16.886;2023-02-28T07:40:55;18.13;;;15.00;;
6955;SDS011;50345;51.136;16.886;2023-02-28T07:43:20;18.30;;;15.33;;
6955;SDS011;50345;51.136;16.886;2023-02-28T07:45:46;21.03;;;14.87;;
6955;SDS011;50345;51.136;16.886;2023-02-28T07:48:11;17.20;;;13.27;;
6955;SDS011;50345;51.136;16.886;2023-02-28T07:50:37;10.33;;;9.03;;
6955;SDS011;50345;51.136;16.886;2023-02-28T07:53:02;14.10;;;10.93;;
6955;SDS011;50345;51.136;16.886;2023-02-28T07:55:29;16.83;;;11.52;;
6955;SDS011;50345;51.136;16.886;2023-02-28T07:57:56;18.40;;;12.83;;
6955;SDS011;50345;51.136;16.886;2023-02-28T08:00:22;20.73;;;12.68;;
6955;SDS011;50345;51.136;16.886;2023-02-28T08:02:48;13.18;;;10.95;;
6955;SDS011;50345;51.136;16.886;2023-02-28T08:05:14;16.67;;;10.63;;
6955;SDS011;50345;51.136;16.886;2023-02-28T08:07:40;13.10;;;11.57;;
6955;SDS011;50345;51.136;16.886;2023-02-28T08:10:05;10.57;;;9.50;;
6955;SDS011;50345;51.136;16.886;2023-02-28T08:12:32;16.20;;;10.40;;
6955;SDS011;50345;51.136;16.886;2023-02-28T08:14:57;13.90;;;9.83;;
6955;SDS011;50345;51.136;16.886;2023-02-28T08:17:23;11.33;;;10.13;;
6955;SDS011;50345;51.136;16.886;2023-02-28T08:19:49;11.27;;;9.97;;
6955;SDS011;50345;51.136;16.886;2023-02-28T08:22:15;16.27;;;12.10;;
6955;SDS011;50345;51.136;16.886;2023-02-28T08:24:41;11.37;;;10.27;;
6955;SDS011;50345;51.136;16.886;2023-02-28T08:27:07;12.93;;;11.02;;
6955;SDS011;50345;51.136;16.886;2023-02-28T08:29:33;15.33;;;13.37;;
6955;SDS011;50345;51.136;16.886;2023-02-28T08:32:01;12.57;;;11.27;;
6955;SDS011;50345;51.136;16.886;2023-02-28T08:34:26;12.83;;;10.60;;
6955;SDS011;50345;51.136;16.886;2023-02-28T08:36:52;13.77;;;10.00;;
6955;SDS011;50345;51.136;16.886;2023-02-28T08:39:18;13.23;;;11.50;;
6955;SDS011;50345;51.136;16.886;2023-02-28T08:41:44;11.60;;;10.40;;
6955;SDS011;50345;51.136;16.886;2023-02-28T08:44:10;12.27;;;10.53;;
6955;SDS011;50345;51.136;16.886;2023-02-28T08:46:36;14.97;;;11.33;;
6955;SDS011;50345;51.136;16.886;2023-02-28T08:49:01;15.83;;;10.23;;
6955;SDS011;50345;51.136;16.886;2023-02-28T08:51:27;11.50;;;10.20;;
6955;SDS011;50345;51.136;16.886;2023-02-28T08:53:54;13.30;;;11.57;;
6955;SDS011;50345;51.136;16.886;2023-02-28T08:56:21;11.52;;;10.32;;
6955;SDS011;50345;51.136;16.886;2023-02-28T08:58:47;15.93;;;11.10;;
6955;SDS011;50345;51.136;16.886;2023-02-28T09:01:18;12.93;;;10.73;;
6955;SDS011;50345;51.136;16.886;2023-02-28T09:03:45;12.45;;;11.15;;
6955;SDS011;50345;51.136;16.886;2023-02-28T09:06:12;10.55;;;9.50;;
6955;SDS011;50345;51.136;16.886;2023-02-28T09:08:39;11.88;;;10.52;;
6955;SDS011;50345;51.136;16.886;2023-02-28T09:11:05;12.10;;;10.50;;
6955;SDS011;50345;51.136;16.886;2023-02-28T09:13:32;12.73;;;10.45;;
6955;SDS011;50345;51.136;16.886;2023-02-28T09:15:58;12.90;;;10.20;;
6955;SDS011;50345;51.136;16.886;2023-02-28T09:18:24;8.30;;;7.50;;
6955;SDS011;50345;51.136;16.886;2023-02-28T09:20:51;8.55;;;6.25;;
6955;SDS011;50345;51.136;16.886;2023-02-28T09:23:16;5.97;;;5.47;;
6955;SDS011;50345;51.136;16.886;2023-02-28T09:25:46;6.70;;;6.10;;
6955;SDS011;50345;51.136;16.886;2023-02-28T09:28:12;7.75;;;6.65;;
6955;SDS011;50345;51.136;16.886;2023-02-28T09:30:39;5.93;;;5.10;;
6955;SDS011;50345;51.136;16.886;2023-02-28T09:33:04;6.30;;;5.70;;
6955;SDS011;50345;51.136;16.886;2023-02-28T09:35:30;6.97;;;4.97;;
6955;SDS011;50345;51.136;16.886;2023-02-28T09:37:56;6.75;;;6.03;;
6955;SDS011;50345;51.136;16.886;2023-02-28T09:40:24;6.97;;;6.30;;
6955;SDS011;50345;51.136;16.886;2023-02-28T09:42:51;6.20;;;5.65;;
6955;SDS011;50345;51.136;16.886;2023-02-28T09:48:10;8.35;;;7.25;;
6955;SDS011;50345;51.136;16.886;2023-02-28T09:50:41;7.97;;;7.28;;
6955;SDS011;50345;51.136;16.886;2023-02-28T09:55:51;6.50;;;5.93;;
6955;SDS011;50345;51.136;16.886;2023-02-28T10:01:54;8.53;;;6.53;;
6955;SDS011;50345;51.136;16.886;2023-02-28T10:09:45;8.47;;;7.77;;
6955;SDS011;50345;51.136;16.886;2023-02-28T10:12:15;8.60;;;7.70;;
6955;SDS011;50345;51.136;16.886;2023-02-28T10:14:43;11.07;;;7.77;;
6955;SDS011;50345;51.136;16.886;2023-02-28T10:17:57;7.37;;;6.77;;
6955;SDS011;50345;51.136;16.886;2023-02-28T10:20:10;8.50;;;6.80;;
6955;SDS011;50345;51.136;16.886;2023-02-28T10:22:47;7.37;;;6.67;;
6955;SDS011;50345;51.136;16.886;2023-02-28T10:25:33;7.87;;;6.40;;
6955;SDS011;50345;51.136;16.886;2023-02-28T10:28:05;7.80;;;7.10;;
6955;SDS011;50345;51.136;16.886;2023-02-28T10:30:39;10.63;;;9.40;;
6955;SDS011;50345;51.136;16.886;2023-02-28T10:33:17;9.30;;;8.40;;
6955;SDS011;50345;51.136;16.886;2023-02-28T10:35:49;9.80;;;8.70;;
6955;SDS011;50345;51.136;16.886;2023-02-28T10:38:19;9.63;;;8.67;;
6955;SDS011;50345;51.136;16.886;2023-02-28T10:40:47;10.13;;;9.00;;
6955;SDS011;50345;51.136;16.886;2023-02-28T10:45:39;10.70;;;9.60;;
6955;SDS011;50345;51.136;16.886;2023-02-28T10:58:30;18.97;;;17.37;;
6955;SDS011;50345;51.136;16.886;2023-02-28T11:01:10;12.90;;;11.10;;
6955;SDS011;50345;51.136;16.886;2023-02-28T11:03:49;10.63;;;9.53;;
6955;SDS011;50345;51.136;16.886;2023-02-28T11:09:16;12.10;;;11.03;;
6955;SDS011;50345;51.136;16.886;2023-02-28T11:12:00;12.20;;;10.90;;
6955;SDS011;50345;51.136;16.886;2023-02-28T11:14:32;12.33;;;11.10;;
6955;SDS011;50345;51.136;16.886;2023-02-28T11:17:14;10.40;;;9.50;;
6955;SDS011;50345;51.136;16.886;2023-02-28T11:19:46;11.00;;;10.10;;
6955;SDS011;50345;51.136;16.886;2023-02-28T11:22:18;11.40;;;10.40;;
6955;SDS011;50345;51.136;16.886;2023-02-28T11:24:47;12.27;;;11.20;;
6955;SDS011;50345;51.136;16.886;2023-02-28T11:29:56;11.63;;;10.53;;
6955;SDS011;50345;51.136;16.886;2023-02-28T11:32:24;12.10;;;10.97;;
6955;SDS011;50345;51.136;16.886;2023-02-28T11:37:36;11.57;;;10.40;;
6955;SDS011;50345;51.136;16.886;2023-02-28T11:40:05;10.50;;;9.60;;
6955;SDS011;50345;51.136;16.886;2023-02-28T11:45:41;10.73;;;9.63;;
6955;SDS011;50345;51.136;16.886;2023-02-28T11:48:32;9.33;;;8.47;;
6955;SDS011;50345;51.136;16.886;2023-02-28T11:57:03;10.03;;;9.13;;
6955;SDS011;50345;51.136;16.886;2023-02-28T12:17:02;9.30;;;8.50;;
6955;SDS011;50345;51.136;16.886;2023-02-28T12:22:46;9.90;;;8.90;;
6955;SDS011;50345;51.136;16.886;2023-02-28T12:28:01;10.10;;;9.10;;
6955;SDS011;50345;51.136;16.886;2023-02-28T12:30:32;9.33;;;8.63;;
6955;SDS011;50345;51.136;16.886;2023-02-28T12:33:03;9.77;;;8.93;;
6955;SDS011;50345;51.136;16.886;2023-02-28T12:38:18;10.50;;;9.50;;
6955;SDS011;50345;51.136;16.886;2023-02-28T12:40:49;12.30;;;11.23;;
6955;SDS011;50345;51.136;16.886;2023-02-28T12:43:19;11.00;;;10.10;;
6955;SDS011;50345;51.136;16.886;2023-02-28T12:45:47;11.73;;;10.70;;
6955;SDS011;50345;51.136;16.886;2023-02-28T12:49:32;10.47;;;9.57;;
6955;SDS011;50345;51.136;16.886;2023-02-28T12:51:46;13.17;;;11.97;;
6955;SDS011;50345;51.136;16.886;2023-02-28T12:54:15;12.53;;;11.30;;
6955;SDS011;50345;51.136;16.886;2023-02-28T12:56:54;10.87;;;9.93;;
6955;SDS011;50345;51.136;16.886;2023-02-28T12:59:25;13.80;;;11.77;;
6955;SDS011;50345;51.136;16.886;2023-02-28T13:02:19;13.40;;;12.20;;
6955;SDS011;50345;51.136;16.886;2023-02-28T13:10:46;12.17;;;11.00;;
6955;SDS011;50345;51.136;16.886;2023-02-28T13:13:20;12.10;;;10.90;;
6955;SDS011;50345;51.136;16.886;2023-02-28T13:16:23;13.43;;;12.13;;
6955;SDS011;50345;51.136;16.886;2023-02-28T13:18:43;11.07;;;9.97;;
6955;SDS011;50345;51.136;16.886;2023-02-28T13:21:23;12.60;;;11.40;;
6955;SDS011;50345;51.136;16.886;2023-02-28T13:26:22;13.30;;;11.93;;
6955;SDS011;50345;51.136;16.886;2023-02-28T13:31:13;12.10;;;11.10;;
6955;SDS011;50345;51.136;16.886;2023-02-28T13:44:04;12.20;;;10.90;;
6955;SDS011;50345;51.136;16.886;2023-02-28T13:46:36;11.57;;;10.47;;
6955;SDS011;50345;51.136;16.886;2023-02-28T13:52:02;11.27;;;10.17;;
6955;SDS011;50345;51.136;16.886;2023-02-28T14:05:06;12.30;;;10.73;;
6955;SDS011;50345;51.136;16.886;2023-02-28T14:07:50;11.47;;;10.30;;
6955;SDS011;50345;51.136;16.886;2023-02-28T14:13:01;10.67;;;9.67;;
6955;SDS011;50345;51.136;16.886;2023-02-28T14:18:13;12.03;;;10.03;;
6955;SDS011;50345;51.136;16.886;2023-02-28T14:20:47;11.80;;;10.33;;
6955;SDS011;50345;51.136;16.886;2023-02-28T14:26:02;11.27;;;10.07;;
6955;SDS011;50345;51.136;16.886;2023-02-28T14:31:34;11.63;;;10.50;;
6955;SDS011;50345;51.136;16.886;2023-02-28T14:34:43;9.93;;;9.03;;
6955;SDS011;50345;51.136;16.886;2023-02-28T14:37:23;11.60;;;9.90;;
6955;SDS011;50345;51.136;16.886;2023-02-28T14:39:53;11.40;;;10.30;;
6955;SDS011;50345;51.136;16.886;2023-02-28T14:42:39;12.47;;;11.23;;
6955;SDS011;50345;51.136;16.886;2023-02-28T14:45:30;12.83;;;11.53;;
6955;SDS011;50345;51.136;16.886;2023-02-28T14:47:55;12.03;;;10.83;;
6955;SDS011;50345;51.136;16.886;2023-02-28T14:50:33;14.13;;;12.73;;
6955;SDS011;50345;51.136;16.886;2023-02-28T14:53:01;13.60;;;12.20;;
6955;SDS011;50345;51.136;16.886;2023-02-28T14:55:28;15.00;;;13.13;;
6955;SDS011;50345;51.136;16.886;2023-02-28T14:58:00;15.87;;;14.13;;
6955;SDS011;50345;51.136;16.886;2023-02-28T15:00:35;14.73;;;13.33;;
6955;SDS011;50345;51.136;16.886;2023-02-28T15:03:19;15.27;;;13.70;;
6955;SDS011;50345;51.136;16.886;2023-02-28T15:05:55;14.17;;;12.67;;
6955;SDS011;50345;51.136;16.886;2023-02-28T15:08:25;14.57;;;13.17;;
6955;SDS011;50345;51.136;16.886;2023-02-28T15:11:07;16.00;;;14.50;;
6955;SDS011;50345;51.136;16.886;2023-02-28T15:13:38;15.63;;;14.03;;
6955;SDS011;50345;51.136;16.886;2023-02-28T15:18:58;13.57;;;12.17;;
6955;SDS011;50345;51.136;16.886;2023-02-28T15:23:54;13.95;;;12.52;;
6955;SDS011;50345;51.136;16.886;2023-02-28T15:26:24;15.80;;;13.82;;
6955;SDS011;50345;51.136;16.886;2023-02-28T15:28:57;14.48;;;11.90;;
6955;SDS011;50345;51.136;16.886;2023-02-28T15:31:27;16.27;;;13.25;;
6955;SDS011;50345;51.136;16.886;2023-02-28T15:33:57;14.65;;;12.88;;
6955;SDS011;50345;51.136;16.886;2023-02-28T15:36:31;17.50;;;13.63;;
6955;SDS011;50345;51.136;16.886;2023-02-28T15:39:02;13.25;;;11.77;;
6955;SDS011;50345;51.136;16.886;2023-02-28T15:41:43;18.13;;;14.23;;
6955;SDS011;50345;51.136;16.886;2023-02-28T15:46:58;18.67;;;13.80;;
6955;SDS011;50345;51.136;16.886;2023-02-28T15:49:26;17.70;;;13.35;;
6955;SDS011;50345;51.136;16.886;2023-02-28T15:51:54;17.17;;;12.55;;
6955;SDS011;50345;51.136;16.886;2023-02-28T15:54:33;16.02;;;11.07;;
6955;SDS011;50345;51.136;16.886;2023-02-28T15:57:06;14.77;;;11.07;;
6955;SDS011;50345;51.136;16.886;2023-02-28T15:59:38;16.65;;;14.00;;
6955;SDS011;50345;51.136;16.886;2023-02-28T16:04:35;14.95;;;13.00;;
6955;SDS011;50345;51.136;16.886;2023-02-28T16:07:03;18.25;;;14.35;;
6955;SDS011;50345;51.136;16.886;2023-02-28T16:09:30;18.08;;;12.73;;
6955;SDS011;50345;51.136;16.886;2023-02-28T16:11:59;16.23;;;12.95;;
6955;SDS011;50345;51.136;16.886;2023-02-28T16:14:26;16.58;;;12.70;;
6955;SDS011;50345;51.136;16.886;2023-02-28T16:16:56;18.52;;;14.48;;
6955;SDS011;50345;51.136;16.886;2023-02-28T16:19:28;16.90;;;11.93;;
6955;SDS011;50345;51.136;16.886;2023-02-28T16:21:54;21.67;;;14.30;;
6955;SDS011;50345;51.136;16.886;2023-02-28T16:24:19;22.50;;;16.13;;
6955;SDS011;50345;51.136;16.886;2023-02-28T16:26:46;19.97;;;13.77;;
6955;SDS011;50345;51.136;16.886;2023-02-28T16:29:13;19.15;;;14.20;;
6955;SDS011;50345;51.136;16.886;2023-02-28T16:31:44;20.60;;;15.88;;
6955;SDS011;50345;51.136;16.886;2023-02-28T16:34:10;15.63;;;12.40;;
6955;SDS011;50345;51.136;16.886;2023-02-28T16:36:35;14.30;;;11.90;;
6955;SDS011;50345;51.136;16.886;2023-02-28T16:39:01;19.67;;;12.20;;
6955;SDS011;50345;51.136;16.886;2023-02-28T16:41:27;16.15;;;11.80;;
6955;SDS011;50345;51.136;16.886;2023-02-28T16:43:54;13.40;;;11.90;;
6955;SDS011;50345;51.136;16.886;2023-02-28T16:46:27;17.48;;;13.00;;
6955;SDS011;50345;51.136;16.886;2023-02-28T16:48:56;20.83;;;12.90;;
6955;SDS011;50345;51.136;16.886;2023-02-28T16:51:22;18.70;;;14.37;;
6955;SDS011;50345;51.136;16.886;2023-02-28T16:53:47;25.80;;;16.90;;
6955;SDS011;50345;51.136;16.886;2023-02-28T16:56:14;21.30;;;17.03;;
6955;SDS011;50345;51.136;16.886;2023-02-28T16:58:44;28.08;;;18.83;;
6955;SDS011;50345;51.136;16.886;2023-02-28T17:01:10;27.95;;;19.13;;
6955;SDS011;50345;51.136;16.886;2023-02-28T17:03:36;38.93;;;21.77;;
6955;SDS011;50345;51.136;16.886;2023-02-28T17:06:02;32.90;;;21.27;;
6955;SDS011;50345;51.136;16.886;2023-02-28T17:08:29;41.38;;;28.90;;
6955;SDS011;50345;51.136;16.886;2023-02-28T17:10:56;46.30;;;29.67;;